createdAt,value
2023-01-02T00:01:08.994Z,53.75
2023-01-02T00:03:36.760Z,54.76
2023-01-02T00:06:05.199Z,53.93
2023-01-02T00:08:33.146Z,57.89
2023-01-02T00:11:00.845Z,56.69
2023-01-02T00:13:28.684Z,56.62
2023-01-02T00:15:56.154Z,56.17
2023-01-02T00:18:23.872Z,55.54
2023-01-02T00:20:51.314Z,55.64
2023-01-02T00:23:18.747Z,53.96
2023-01-02T00:25:48.592Z,54.64
2023-01-02T00:28:15.994Z,55.43
2023-01-02T00:30:43.388Z,55.54
2023-01-02T00:33:11.085Z,55.36
2023-01-02T00:35:38.923Z,55.98
2023-01-02T00:38:06.430Z,56.35
2023-01-02T00:40:34.730Z,57.09
2023-01-02T00:43:02.423Z,59.25
2023-01-02T00:45:29.863Z,58.28
2023-01-02T00:47:57.613Z,59.41
2023-01-02T00:50:25.015Z,58.80
2023-01-02T00:52:52.443Z,56.96
2023-01-02T00:55:20.346Z,56.97
2023-01-02T00:57:47.739Z,54.74
2023-01-02T01:00:21.615Z,54.33
2023-01-02T01:02:58.636Z,53.89
2023-01-02T01:05:26.629Z,53.59
2023-01-02T01:07:55.581Z,53.32
2023-01-02T01:10:24.081Z,54.19
2023-01-02T01:12:51.681Z,59.68
2023-01-02T01:15:19.386Z,57.87
2023-01-02T01:17:46.865Z,59.93
2023-01-02T01:20:14.330Z,63.14
2023-01-02T01:22:42.051Z,63.76
2023-01-02T01:25:09.792Z,63.06
2023-01-02T01:27:37.204Z,62.55
2023-01-02T01:30:06.332Z,59.53
2023-01-02T01:32:34.955Z,59.18
2023-01-02T01:35:02.554Z,58.53
2023-01-02T01:37:30.375Z,59.88
2023-01-02T01:39:57.734Z,59.87
2023-01-02T01:42:25.101Z,57.78
2023-01-02T01:44:54.607Z,58.53
2023-01-02T01:47:53.380Z,55.65
2023-01-02T01:50:30.011Z,55.25
2023-01-02T01:53:18.199Z,57.14
2023-01-02T01:55:51.013Z,59.07
2023-01-02T01:58:25.159Z,58.76
2023-01-02T02:00:53.214Z,56.22
2023-01-02T02:03:24.410Z,57.85
2023-01-02T02:05:52.211Z,58.10
2023-01-02T02:08:23.709Z,58.51
2023-01-02T02:10:52.066Z,56.61
2023-01-02T02:13:21.610Z,58.17
2023-01-02T02:16:49.241Z,56.30
2023-01-02T02:19:44.368Z,56.66
2023-01-02T02:22:14.377Z,55.32
2023-01-02T02:24:56.791Z,55.18
2023-01-02T02:27:51.949Z,57.89
2023-01-02T02:30:25.968Z,59.09
2023-01-02T02:33:18.478Z,57.38
2023-01-02T02:35:55.009Z,55.68
2023-01-02T02:38:28.093Z,57.46
2023-01-02T02:41:04.778Z,57.03
2023-01-02T02:43:50.907Z,56.87
2023-01-02T02:46:52.011Z,56.41
2023-01-02T02:49:37.788Z,58.19
2023-01-02T02:52:08.597Z,59.03
2023-01-02T02:54:49.288Z,58.32
2023-01-02T02:57:17.972Z,58.08
2023-01-02T02:59:46.110Z,59.23
2023-01-02T03:02:16.338Z,57.37
2023-01-02T03:04:48.054Z,57.15
2023-01-02T03:07:21.400Z,55.72
2023-01-02T03:10:16.191Z,56.11
2023-01-02T03:12:55.529Z,57.74
2023-01-02T03:15:36.151Z,55.73
2023-01-02T03:18:30.650Z,56.82
2023-01-02T03:21:04.576Z,58.58
2023-01-02T03:23:37.053Z,55.65
2023-01-02T03:26:05.287Z,56.20
2023-01-02T03:28:32.909Z,56.25
2023-01-02T03:31:01.930Z,55.62
2023-01-02T03:33:32.780Z,53.56
2023-01-02T03:36:04.073Z,54.30
2023-01-02T03:38:44.798Z,56.43
2023-01-02T03:41:19.086Z,57.93
2023-01-02T03:43:54.751Z,60.68
2023-01-02T03:46:31.573Z,61.41
2023-01-02T03:49:07.295Z,56.75
2023-01-02T03:51:35.903Z,57.65
2023-01-02T03:54:04.648Z,58.14
2023-01-02T03:56:42.177Z,57.71
2023-01-02T03:59:16.649Z,59.24
2023-01-02T04:01:52.335Z,55.66
2023-01-02T04:04:23.068Z,56.63
2023-01-02T04:06:56.091Z,58.75
2023-01-02T04:09:27.076Z,61.06
2023-01-02T04:11:59.396Z,63.30
2023-01-02T04:14:40.754Z,66.59
2023-01-02T04:17:08.716Z,65.46
2023-01-02T04:19:43.297Z,64.20
2023-01-02T04:22:14.626Z,65.69
2023-01-02T04:24:46.877Z,66.14
2023-01-02T04:27:19.318Z,68.91
2023-01-02T04:29:47.012Z,66.00
2023-01-02T04:32:21.339Z,62.47
2023-01-02T04:34:49.875Z,66.08
2023-01-02T04:37:33.906Z,67.62
2023-01-02T04:40:11.338Z,66.42
2023-01-02T04:42:39.055Z,65.50
2023-01-02T04:45:07.649Z,63.82
2023-01-02T04:47:35.281Z,66.87
2023-01-02T04:50:05.138Z,65.13
2023-01-02T04:52:36.968Z,65.82
2023-01-02T04:55:08.410Z,63.84
2023-01-02T04:57:37.292Z,66.25
2023-01-02T05:00:06.625Z,65.11
2023-01-02T05:02:38.054Z,67.75
2023-01-02T05:05:09.465Z,65.32
2023-01-02T05:07:37.599Z,66.35
2023-01-02T05:10:06.378Z,62.45
2023-01-02T05:12:35.497Z,61.88
2023-01-02T05:15:04.450Z,66.30
2023-01-02T05:17:40.107Z,67.58
2023-01-02T05:20:10.471Z,66.05
2023-01-02T05:22:58.745Z,66.14
2023-01-02T05:25:27.371Z,68.04
2023-01-02T05:27:55.450Z,65.03
2023-01-02T05:30:23.372Z,65.16
2023-01-02T05:32:51.192Z,65.07
2023-01-02T05:35:18.705Z,64.69
2023-01-02T05:37:46.221Z,66.86
2023-01-02T05:40:13.932Z,62.42
2023-01-02T05:42:41.496Z,64.19
2023-01-02T05:45:09.246Z,63.25
2023-01-02T05:47:38.670Z,62.31
2023-01-02T05:50:07.847Z,64.29
2023-01-02T05:52:37.642Z,66.46
2023-01-02T05:55:09.575Z,66.89
2023-01-02T05:57:37.026Z,65.04
2023-01-02T06:00:04.690Z,66.75
2023-01-02T06:02:43.153Z,63.52
2023-01-02T06:05:15.486Z,64.28
2023-01-02T06:07:44.333Z,61.44
2023-01-02T06:10:11.911Z,64.60
2023-01-02T06:12:39.604Z,62.66
2023-01-02T06:15:08.926Z,61.93
2023-01-02T06:17:36.376Z,61.48
2023-01-02T06:20:04.709Z,62.21
2023-01-02T06:22:32.122Z,63.86
2023-01-02T06:24:59.542Z,62.94
2023-01-02T06:27:27.239Z,63.42
2023-01-02T06:29:54.675Z,62.33
2023-01-02T06:32:22.106Z,62.49
2023-01-02T06:34:49.801Z,63.73
2023-01-02T06:37:17.210Z,65.00
2023-01-02T06:39:44.678Z,64.05
2023-01-02T06:42:12.626Z,64.42
2023-01-02T06:44:41.365Z,63.56
2023-01-02T06:47:08.837Z,63.15
2023-01-02T06:49:36.823Z,63.09
2023-01-02T06:52:04.498Z,65.11
2023-01-02T06:54:32.875Z,63.71
2023-01-02T06:57:00.930Z,63.86
2023-01-02T06:59:28.355Z,64.58
2023-01-02T07:01:55.905Z,63.65
2023-01-02T07:04:23.722Z,63.89
2023-01-02T07:06:51.272Z,62.91
2023-01-02T07:09:18.817Z,63.09
2023-01-02T07:11:46.780Z,62.95
2023-01-02T07:14:14.228Z,62.29
2023-01-02T07:16:41.707Z,59.75
2023-01-02T07:19:09.458Z,61.33
2023-01-02T07:21:37.042Z,61.47
2023-01-02T07:24:04.722Z,62.24
2023-01-02T07:26:32.498Z,59.64
2023-01-02T07:29:00.108Z,60.41
2023-01-02T07:31:29.682Z,59.63
2023-01-02T07:33:58.357Z,60.16
2023-01-02T07:36:25.809Z,60.86
2023-01-02T07:38:54.997Z,61.77
2023-01-02T07:41:24.335Z,61.90
2023-01-02T07:43:54.204Z,62.70
2023-01-02T07:46:23.468Z,60.88
2023-01-02T07:48:51.321Z,64.93
2023-01-02T07:51:26.267Z,65.44
2023-01-02T07:53:56.342Z,65.94
2023-01-02T07:56:25.366Z,67.08
2023-01-02T07:58:53.298Z,64.84
2023-01-02T08:01:21.186Z,62.64
2023-01-02T08:03:49.167Z,61.28
2023-01-02T08:06:17.892Z,63.89
2023-01-02T08:08:45.858Z,63.24
2023-01-02T08:11:19.516Z,63.88
2023-01-02T08:13:47.374Z,63.24
2023-01-02T08:16:17.341Z,63.41
2023-01-02T08:18:46.788Z,64.22
2023-01-02T08:21:14.714Z,65.05
2023-01-02T08:23:42.476Z,63.32
2023-01-02T08:26:10.929Z,62.91
2023-01-02T08:28:40.007Z,62.28
2023-01-02T08:31:13.614Z,63.57
2023-01-02T08:33:41.502Z,65.02
2023-01-02T08:36:09.592Z,65.30
2023-01-02T08:38:37.082Z,64.58
2023-01-02T08:41:05.506Z,62.96
2023-01-02T08:43:35.366Z,62.85
2023-01-02T08:46:04.835Z,65.02
2023-01-02T08:48:33.320Z,65.67
2023-01-02T08:51:01.236Z,65.56
2023-01-02T08:53:29.694Z,63.79
2023-01-02T08:56:19.767Z,63.08
2023-01-02T08:58:54.433Z,63.27
2023-01-02T09:01:23.586Z,61.66
2023-01-02T09:03:52.222Z,61.89
2023-01-02T09:06:22.315Z,61.02
2023-01-02T09:08:52.871Z,63.41
2023-01-02T09:11:30.111Z,64.97
2023-01-02T09:13:58.430Z,67.49
2023-01-02T09:16:28.753Z,63.59
2023-01-02T09:18:57.963Z,66.04
2023-01-02T09:21:26.019Z,67.33
2023-01-02T09:23:53.436Z,66.50
2023-01-02T09:26:21.445Z,67.51
2023-01-02T09:28:49.637Z,66.93
2023-01-02T09:31:18.101Z,63.03
2023-01-02T09:33:47.013Z,65.22
2023-01-02T09:36:17.322Z,65.32
2023-01-02T09:38:44.793Z,65.17
2023-01-02T09:41:27.125Z,65.38
2023-01-02T09:44:15.978Z,67.31
2023-01-02T09:46:43.393Z,68.50
2023-01-02T09:49:22.411Z,65.92
2023-01-02T09:51:50.393Z,66.51
2023-01-02T09:54:30.685Z,68.91
2023-01-02T09:57:27.269Z,66.80
2023-01-02T10:00:05.599Z,63.92
2023-01-02T10:02:55.339Z,64.75
2023-01-02T10:05:50.105Z,62.58
2023-01-02T10:08:39.325Z,62.92
2023-01-02T10:11:31.551Z,62.01
2023-01-02T10:14:20.825Z,62.56
2023-01-02T10:16:51.675Z,63.58
2023-01-02T10:19:26.880Z,62.46
2023-01-02T10:21:58.663Z,61.77
2023-01-02T10:24:38.820Z,63.09
2023-01-02T10:27:17.503Z,62.37
2023-01-02T10:30:03.129Z,63.51
2023-01-02T10:32:32.941Z,60.96
2023-01-02T10:35:07.547Z,60.49
2023-01-02T10:37:35.572Z,61.85
2023-01-02T10:40:04.604Z,60.82
2023-01-02T10:42:33.562Z,61.41
2023-01-02T10:45:01.485Z,61.02
2023-01-02T10:47:37.336Z,64.66
2023-01-02T10:50:15.030Z,63.79
2023-01-02T10:52:52.219Z,65.70
2023-01-02T10:55:39.987Z,62.79
2023-01-02T10:58:22.617Z,62.92
2023-01-02T11:00:52.238Z,60.82
2023-01-02T11:03:27.796Z,60.21
2023-01-02T11:05:59.388Z,61.21
2023-01-02T11:08:39.400Z,61.42
2023-01-02T11:11:18.242Z,59.14
2023-01-02T11:13:54.402Z,59.98
2023-01-02T11:16:24.628Z,59.05
2023-01-02T11:18:58.414Z,58.81
2023-01-02T11:21:29.069Z,58.35
2023-01-02T11:24:16.428Z,60.73
2023-01-02T11:26:46.834Z,60.49
2023-01-02T11:29:32.104Z,60.92
2023-01-02T11:32:02.175Z,60.28
2023-01-02T11:34:34.219Z,59.71
2023-01-02T11:37:02.803Z,60.31
2023-01-02T11:39:32.033Z,59.91
2023-01-02T11:42:18.394Z,58.42
2023-01-02T11:45:10.928Z,58.92
2023-01-02T11:47:50.221Z,59.41
2023-01-02T11:50:25.272Z,60.61
2023-01-02T11:53:02.418Z,59.20
2023-01-02T11:55:37.113Z,59.47
2023-01-02T11:58:25.172Z,56.85
2023-01-02T12:00:55.818Z,60.18
2023-01-02T12:03:26.789Z,59.53
2023-01-02T12:06:20.314Z,60.01
2023-01-02T12:09:13.554Z,58.11
2023-01-02T12:11:53.035Z,59.57
2023-01-02T12:14:24.723Z,61.12
2023-01-02T12:17:16.916Z,59.44
2023-01-02T12:20:00.457Z,58.69
2023-01-02T12:22:43.056Z,59.77
2023-01-02T12:25:16.549Z,60.29
2023-01-02T12:27:43.884Z,60.50
2023-01-02T12:30:16.859Z,59.17
2023-01-02T12:33:05.781Z,59.43
2023-01-02T12:35:41.266Z,59.79
2023-01-02T12:38:11.485Z,59.44
2023-01-02T12:41:11.914Z,57.40
2023-01-02T12:44:02.236Z,58.32
2023-01-02T12:46:39.020Z,59.20
2023-01-02T12:49:15.571Z,60.14
2023-01-02T12:52:03.099Z,59.29
2023-01-02T12:54:37.222Z,59.68
2023-01-02T12:57:04.845Z,58.31
2023-01-02T12:59:41.143Z,56.49
2023-01-02T13:02:46.531Z,56.76
2023-01-02T13:05:18.698Z,56.48
2023-01-02T13:07:53.442Z,57.78
2023-01-02T13:10:22.898Z,56.60
2023-01-02T13:12:50.655Z,56.65
2023-01-02T13:15:31.207Z,56.15
2023-01-02T13:18:17.597Z,56.30
2023-01-02T13:20:51.263Z,55.81
2023-01-02T13:23:29.458Z,56.18
2023-01-02T13:26:01.072Z,54.46
2023-01-02T13:28:29.103Z,54.04
2023-01-02T13:31:35.807Z,53.95
2023-01-02T13:33:55.205Z,53.45
2023-01-02T13:36:26.762Z,54.44
2023-01-02T13:39:04.171Z,55.04
2023-01-02T13:41:58.099Z,55.48
2023-01-02T13:44:33.125Z,54.53
2023-01-02T13:47:09.446Z,54.55
2023-01-02T13:49:37.281Z,54.28
2023-01-02T13:52:04.751Z,54.43
2023-01-02T13:54:37.499Z,54.40
2023-01-02T13:57:27.335Z,53.02
2023-01-02T13:59:59.635Z,52.12
2023-01-02T14:02:27.965Z,51.99
2023-01-02T14:04:55.830Z,52.14
2023-01-02T14:07:26.090Z,51.91
2023-01-02T14:10:32.605Z,51.97
2023-01-02T14:13:05.590Z,51.81
2023-01-02T14:15:37.931Z,52.33
2023-01-02T14:18:09.446Z,52.23
2023-01-02T14:20:43.649Z,52.32
2023-01-02T14:23:25.424Z,52.90
2023-01-02T14:25:53.125Z,52.86
2023-01-02T14:28:24.263Z,52.44
2023-01-02T14:30:52.166Z,53.26
2023-01-02T14:33:35.196Z,53.84
2023-01-02T14:36:08.441Z,52.22
2023-01-02T14:38:41.475Z,52.05
2023-01-02T14:42:08.747Z,51.17
2023-01-02T14:44:56.391Z,53.19
2023-01-02T14:47:36.244Z,52.84
2023-01-02T14:50:06.902Z,52.21
2023-01-02T14:52:43.002Z,53.01
2023-01-02T14:55:23.504Z,53.80
2023-01-02T14:57:53.364Z,53.26
2023-01-02T15:00:25.065Z,53.01
2023-01-02T15:03:14.709Z,53.27
2023-01-02T15:05:48.696Z,54.16
2023-01-02T15:08:20.210Z,54.73
2023-01-02T15:11:19.306Z,55.20
2023-01-02T15:14:03.884Z,57.35
2023-01-02T15:16:41.007Z,56.14
2023-01-02T15:19:23.474Z,54.64
2023-01-02T15:21:51.315Z,54.54
2023-01-02T15:24:26.964Z,55.43
2023-01-02T15:26:54.427Z,55.74
2023-01-02T15:29:27.120Z,55.00
2023-01-02T15:32:00.431Z,55.36
2023-01-02T15:34:30.862Z,56.33
2023-01-02T15:37:02.665Z,55.83
2023-01-02T15:39:39.787Z,54.69
2023-01-02T15:42:30.988Z,55.32
2023-01-02T15:45:11.331Z,57.02
2023-01-02T15:47:41.447Z,56.74
2023-01-02T15:50:24.548Z,55.65
2023-01-02T15:53:10.562Z,56.11
2023-01-02T15:55:39.862Z,56.34
2023-01-02T15:58:17.466Z,56.62
2023-01-02T16:00:45.969Z,56.36
2023-01-02T16:04:01.273Z,57.39
2023-01-02T16:06:41.540Z,56.10
2023-01-02T16:09:29.569Z,57.60
2023-01-02T16:11:59.248Z,56.88
2023-01-02T16:14:44.905Z,56.15
2023-01-02T16:17:26.722Z,55.47
2023-01-02T16:19:59.887Z,56.19
2023-01-02T16:22:31.466Z,57.33
2023-01-02T16:25:19.587Z,56.43
2023-01-02T16:27:55.058Z,57.69
2023-01-02T16:30:32.804Z,57.75
2023-01-02T16:33:03.177Z,56.41
2023-01-02T16:35:34.568Z,57.06
2023-01-02T16:38:19.004Z,56.56
2023-01-02T16:40:59.966Z,56.13
2023-01-02T16:43:31.530Z,56.31
2023-01-02T16:46:00.349Z,56.10
2023-01-02T16:48:29.926Z,56.40
2023-01-02T16:50:58.397Z,56.02
2023-01-02T16:53:31.930Z,56.75
2023-01-02T16:55:59.833Z,56.40
2023-01-02T16:58:29.946Z,56.34
2023-01-02T17:00:57.725Z,56.65
2023-01-02T17:03:26.537Z,55.98
2023-01-02T17:06:01.590Z,57.11
2023-01-02T17:08:31.744Z,57.29
2023-01-02T17:11:00.219Z,58.23
2023-01-02T17:13:28.316Z,56.95
2023-01-02T17:15:56.313Z,55.75
2023-01-02T17:18:24.749Z,55.82
2023-01-02T17:20:52.238Z,54.02
2023-01-02T17:23:20.070Z,55.65
2023-01-02T17:25:48.119Z,55.88
2023-01-02T17:28:16.133Z,56.36
2023-01-02T17:30:45.095Z,56.54
2023-01-02T17:33:13.380Z,55.35
2023-01-02T17:35:40.792Z,55.01
2023-01-02T17:38:08.221Z,55.99
2023-01-02T17:40:37.468Z,54.95
2023-01-02T17:43:05.752Z,54.17
2023-01-02T17:45:33.302Z,54.32
2023-01-02T17:48:07.834Z,51.71
2023-01-02T17:50:37.841Z,52.87
2023-01-02T17:53:08.575Z,52.79
2023-01-02T17:55:36.191Z,54.33
2023-01-02T17:58:04.176Z,54.58
2023-01-02T18:00:33.373Z,54.87
2023-01-02T18:03:01.256Z,59.12
2023-01-02T18:05:28.926Z,57.55
2023-01-02T18:07:56.512Z,55.95
2023-01-02T18:10:29.146Z,53.99
2023-01-02T18:13:00.722Z,54.87
2023-01-02T18:15:28.953Z,54.92
2023-01-02T18:17:59.796Z,56.07
2023-01-02T18:20:28.644Z,55.30
2023-01-02T18:22:58.140Z,57.52
2023-01-02T18:25:30.094Z,56.66
2023-01-02T18:28:24.655Z,54.90
2023-01-02T18:30:58.010Z,56.33
2023-01-02T18:33:27.401Z,55.74
2023-01-02T18:36:02.781Z,56.65
2023-01-02T18:38:34.909Z,58.07
2023-01-02T18:41:26.264Z,57.33
2023-01-02T18:44:04.786Z,56.89
2023-01-02T18:47:04.334Z,57.55
2023-01-02T18:49:31.913Z,56.49
2023-01-02T18:52:11.760Z,57.66
2023-01-02T18:54:55.081Z,56.50
2023-01-02T18:57:23.346Z,55.76
2023-01-02T18:59:51.826Z,56.96
2023-01-02T19:02:38.426Z,57.43
2023-01-02T19:05:37.194Z,57.72
2023-01-02T19:08:08.537Z,57.35
2023-01-02T19:10:41.681Z,57.81
2023-01-02T19:13:26.569Z,57.93
2023-01-02T19:16:05.787Z,57.18
2023-01-02T19:18:49.145Z,58.11
2023-01-02T19:21:19.861Z,58.16
2023-01-02T19:24:16.587Z,57.26
2023-01-02T19:26:46.799Z,57.39
2023-01-02T19:29:18.857Z,57.92
2023-01-02T19:32:05.786Z,58.49
2023-01-02T19:34:45.638Z,58.78
2023-01-02T19:37:14.871Z,58.11
2023-01-02T19:39:51.828Z,58.13
2023-01-02T19:42:20.819Z,57.84
2023-01-02T19:44:56.681Z,58.08
2023-01-02T19:47:27.295Z,57.66
2023-01-02T19:49:56.144Z,57.96
2023-01-02T19:52:25.523Z,56.46
2023-01-02T19:54:54.117Z,57.44
2023-01-02T19:57:24.764Z,58.83
2023-01-02T19:59:56.347Z,58.30
2023-01-02T20:02:27.074Z,57.38
2023-01-02T20:04:57.433Z,58.78
2023-01-02T20:07:26.794Z,58.14
2023-01-02T20:09:56.244Z,57.43
2023-01-02T20:12:30.768Z,58.32
2023-01-02T20:15:01.307Z,55.80
2023-01-02T20:17:31.969Z,56.70
2023-01-02T20:20:01.904Z,55.69
2023-01-02T20:22:30.551Z,55.58
2023-01-02T20:24:59.276Z,55.05
2023-01-02T20:27:27.286Z,51.74
2023-01-02T20:29:58.891Z,48.93
2023-01-02T20:32:27.208Z,52.17
2023-01-02T20:34:55.906Z,53.52
2023-01-02T20:37:26.154Z,53.70
2023-01-02T20:39:56.638Z,53.17
2023-01-02T20:42:26.703Z,52.43
2023-01-02T20:44:57.147Z,52.78
2023-01-02T20:47:25.413Z,54.79
2023-01-02T20:49:54.497Z,52.17
2023-01-02T20:52:23.158Z,53.14
2023-01-02T20:54:51.397Z,50.29
2023-01-02T20:57:21.283Z,49.97
2023-01-02T20:59:49.847Z,50.59
2023-01-02T21:02:18.469Z,52.01
2023-01-02T21:04:47.066Z,51.85
2023-01-02T21:07:16.999Z,51.36
2023-01-02T21:09:44.721Z,50.21
2023-01-02T21:12:32.973Z,49.37
2023-01-02T21:15:01.911Z,49.84
2023-01-02T21:17:31.346Z,49.85
2023-01-02T21:19:59.990Z,50.78
2023-01-02T21:22:28.024Z,50.10
2023-01-02T21:24:55.826Z,50.47
2023-01-02T21:27:23.281Z,50.33
2023-01-02T21:29:51.609Z,53.41
2023-01-02T21:32:19.379Z,55.91
2023-01-02T21:34:47.235Z,58.14
2023-01-02T21:37:15.019Z,66.88
2023-01-02T21:39:42.460Z,71.79
2023-01-02T21:42:18.845Z,62.92
2023-01-02T21:44:47.590Z,63.17
2023-01-02T21:47:16.055Z,69.98
2023-01-02T21:49:44.138Z,63.38
2023-01-02T21:52:12.027Z,55.42
2023-01-02T21:54:39.470Z,52.70
2023-01-02T21:57:06.950Z,52.00
2023-01-02T21:59:34.761Z,53.21
2023-01-02T22:02:04.666Z,55.04
2023-01-02T22:04:33.572Z,66.09
2023-01-02T22:09:51.205Z,70.56
2023-01-02T22:12:18.651Z,78.29
2023-01-02T22:14:46.101Z,78.23
2023-01-02T22:17:14.049Z,78.59
2023-01-02T22:19:41.636Z,78.27
2023-01-02T22:22:09.198Z,70.45
2023-01-02T22:24:43.977Z,61.39
2023-01-02T22:27:14.460Z,57.21
2023-01-02T22:32:34.381Z,55.40
2023-01-02T22:35:04.136Z,54.21
2023-01-02T22:37:31.615Z,56.84
2023-01-02T22:40:01.899Z,58.64
2023-01-02T22:43:00.403Z,63.81
2023-01-02T22:45:31.994Z,58.98
2023-01-02T22:48:03.730Z,61.73
2023-01-02T22:50:39.727Z,65.12
2023-01-02T22:53:34.885Z,59.21
2023-01-02T22:56:10.577Z,63.90
2023-01-02T22:58:38.312Z,64.65
2023-01-02T23:01:19.945Z,71.91
2023-01-02T23:03:49.323Z,71.56
2023-01-02T23:06:21.974Z,76.24
2023-01-02T23:08:51.505Z,71.68
2023-01-02T23:11:20.460Z,61.69
2023-01-02T23:13:53.112Z,68.87
2023-01-02T23:16:42.801Z,69.24
2023-01-02T23:19:16.256Z,69.85
2023-01-02T23:21:49.191Z,72.88
2023-01-02T23:24:19.658Z,75.13
2023-01-02T23:26:50.447Z,76.90
2023-01-02T23:29:18.891Z,76.41
2023-01-02T23:31:48.100Z,70.13
2023-01-02T23:34:18.119Z,79.32
2023-01-02T23:36:45.730Z,80.22
2023-01-02T23:39:15.204Z,83.10
2023-01-02T23:41:43.568Z,85.20
2023-01-02T23:44:11.957Z,86.24
2023-01-02T23:46:40.232Z,83.50
2023-01-02T23:49:08.846Z,70.98
2023-01-02T23:51:37.563Z,65.34
2023-01-02T23:54:05.957Z,64.82
2023-01-02T23:56:36.536Z,61.86
2023-01-02T23:59:06.705Z,68.39
